Willow Valley, Indiana
Current Conditions -  °F | °C
As of 3:55 PM on Friday 28 Nov 2014 (Local Time) from KDCY Reporting Station
Clear Clear  
Wind Chill: -1°   Ceiling: Unl
Heat Index:   Visibility: 10mi
Dew Point: -2°   Wind: 14mph
Humidity: 68%   Direction: 170°S
Pressure: 30.11"   Gusts: 18mph
Location:  38.6262°N, 86.7615°W
Report Text: KDCY 282155Z AUTO 17012G16KT 10SM CLR 04/M02 A3011 RMK AO2 T00371018
Loading
Personal Weather Stations






























Interactive Weather Map New forecast layout! Learn more

10-Day Weather Forecast

Advertisements
Track Severe Weather on mobile